Time;durP1;ratioP1;P1;durP2;ratioP2;P2;SDS_P1;SDS_P2;PMS_P1;PMS_P2;Temp;Humidity;BMP_temperature;BMP_pressure;BME280_temperature;BME280_humidity;BME280_pressure;Samples;Min_cycle;Max_cycle;Signal;HPM_P1;HPM_P2
2022/07/26 00:01:05;;;;;;;14.80;2.65;;;;;;;20.13;100.00;101247.03;5093035;28;20042;-70
2022/07/26 00:03:30;;;;;;;13.68;2.72;;;;;;;20.08;100.00;101253.34;5104477;28;20387;-72
2022/07/26 00:05:57;;;;;;;11.25;2.38;;;;;;;20.05;100.00;101262.28;5106953;28;20383;-72
2022/07/26 00:08:22;;;;;;;11.40;2.35;;;;;;;20.01;100.00;101257.91;5100201;28;20192;-72
2022/07/26 00:10:49;;;;;;;12.63;3.72;;;;;;;19.97;100.00;101261.53;5102769;28;20609;-72
2022/07/26 00:13:18;;;;;;;6.57;2.25;;;;;;;19.97;100.00;101264.22;5113993;28;20109;-71
2022/07/26 00:15:45;;;;;;;10.07;2.00;;;;;;;19.98;100.00;101266.84;5111614;28;20119;-71
2022/07/26 00:18:11;;;;;;;9.80;2.35;;;;;;;19.97;100.00;101269.56;5115798;28;20028;-71
2022/07/26 00:20:36;;;;;;;12.38;2.20;;;;;;;19.92;100.00;101269.59;5099341;28;20039;-71
2022/07/26 00:23:02;;;;;;;9.82;1.83;;;;;;;19.95;100.00;101274.03;5114877;28;20019;-72
2022/07/26 00:25:28;;;;;;;9.63;1.88;;;;;;;19.81;100.00;101267.09;5112317;28;20106;-71
2022/07/26 00:27:54;;;;;;;11.75;2.40;;;;;;;19.84;100.00;101277.72;5110282;28;20102;-70
2022/07/26 00:30:20;;;;;;;8.85;2.00;;;;;;;19.77;100.00;101280.50;5112112;28;20098;-70
2022/07/26 00:32:45;;;;;;;7.55;1.73;;;;;;;19.76;100.00;101276.94;5105643;28;20024;-71
2022/07/26 00:35:10;;;;;;;5.80;1.63;;;;;;;19.76;100.00;101274.25;5115548;28;20023;-70
2022/07/26 00:37:37;;;;;;;6.93;1.83;;;;;;;19.73;100.00;101281.44;5098261;28;20077;-71
2022/07/26 00:40:03;;;;;;;6.90;1.40;;;;;;;19.71;100.00;101281.47;5116819;28;20034;-71
2022/07/26 00:42:28;;;;;;;6.75;1.90;;;;;;;19.69;100.00;101288.59;5101027;28;20032;-70
2022/07/26 00:44:54;;;;;;;6.10;1.58;;;;;;;19.64;100.00;101286.03;5093546;28;20077;-71
2022/07/26 00:47:19;;;;;;;5.57;1.77;;;;;;;19.65;100.00;101286.88;5111506;28;20440;-72
2022/07/26 00:49:44;;;;;;;5.90;1.40;;;;;;;19.63;100.00;101288.69;5111271;28;20055;-70
2022/07/26 00:52:10;;;;;;;3.97;1.35;;;;;;;19.64;100.00;101290.47;5100929;28;20471;-71
2022/07/26 00:54:38;;;;;;;10.32;1.40;;;;;;;19.55;100.00;101291.47;5112177;28;20024;-71
2022/07/26 00:57:04;;;;;;;6.22;1.52;;;;;;;19.56;100.00;101298.59;5099025;28;20065;-70
2022/07/26 00:59:29;;;;;;;7.22;1.30;;;;;;;19.52;100.00;101299.50;5100225;28;20459;-71
2022/07/26 01:01:55;;;;;;;9.40;2.00;;;;;;;19.53;100.00;101304.84;5101529;28;20035;-72
2022/07/26 01:04:21;;;;;;;9.70;1.92;;;;;;;19.48;100.00;101304.03;5107597;28;20019;-71
2022/07/26 01:06:47;;;;;;;8.55;1.92;;;;;;;19.45;100.00;101303.16;5112817;28;20039;-70
2022/07/26 01:09:13;;;;;;;5.70;1.60;;;;;;;19.40;100.00;101303.25;5103226;28;20482;-71
2022/07/26 01:11:38;;;;;;;7.32;1.60;;;;;;;19.36;100.00;101306.84;5110599;28;20028;-70
2022/07/26 01:14:03;;;;;;;8.57;1.70;;;;;;;19.33;100.00;101305.09;5108285;28;20117;-71
2022/07/26 01:16:29;;;;;;;12.98;2.10;;;;;;;19.31;100.00;101308.69;5115165;28;20024;-72
2022/07/26 01:18:54;;;;;;;7.53;1.83;;;;;;;19.31;100.00;101306.91;5109355;28;20076;-71
2022/07/26 01:21:21;;;;;;;3.95;1.60;;;;;;;19.22;100.00;101307.00;5115320;28;20023;-72
2022/07/26 01:23:46;;;;;;;8.75;1.80;;;;;;;19.10;100.00;101310.72;5114166;28;20028;-70
2022/07/26 01:26:12;;;;;;;8.75;2.13;;;;;;;19.07;100.00;101305.41;5102123;28;20341;-70
2022/07/26 01:28:38;;;;;;;6.20;2.65;;;;;;;19.04;100.00;101309.00;5112918;28;20111;-72
2022/07/26 01:31:05;;;;;;;10.23;2.40;;;;;;;19.02;100.00;101312.59;5112495;28;20024;-71
2022/07/26 01:33:31;;;;;;;13.70;2.08;;;;;;;18.98;100.00;101318.84;5109899;28;20055;-71
2022/07/26 01:35:56;;;;;;;7.78;1.75;;;;;;;18.93;100.00;101324.22;5096919;28;20463;-70
2022/07/26 01:38:22;;;;;;;12.23;2.15;;;;;;;18.84;100.00;101324.28;5089985;28;20064;-71
2022/07/26 01:40:47;;;;;;;6.93;1.75;;;;;;;18.83;100.00;101322.53;5095351;28;20033;-72
2022/07/26 01:43:13;;;;;;;9.68;1.67;;;;;;;18.80;100.00;101328.78;5108257;28;20372;-71
2022/07/26 01:45:38;;;;;;;9.70;2.83;;;;;;;18.73;100.00;101331.50;5108498;28;20031;-71
2022/07/26 01:48:04;;;;;;;7.20;1.83;;;;;;;18.73;100.00;101331.50;5113355;28;20058;-71
2022/07/26 01:50:29;;;;;;;5.18;1.70;;;;;;;18.71;100.00;101335.06;5111811;28;20478;-71
2022/07/26 01:52:55;;;;;;;6.50;1.50;;;;;;;18.73;100.00;101326.19;5101285;28;20030;-71
2022/07/26 01:55:20;;;;;;;4.97;2.15;;;;;;;18.64;100.00;101327.16;5109694;28;20016;-71
2022/07/26 01:57:46;;;;;;;3.45;1.38;;;;;;;18.56;100.00;101321.00;5113279;28;20044;-71
2022/07/26 02:00:12;;;;;;;7.35;1.95;;;;;;;18.62;100.00;101326.28;5114484;28;20471;-70
2022/07/26 02:02:37;;;;;;;7.57;1.98;;;;;;;18.56;100.00;101326.31;5106154;28;20053;-72
2022/07/26 02:05:04;;;;;;;9.98;2.50;;;;;;;18.52;100.00;101329.03;5112905;28;20295;-71
2022/07/26 02:07:36;;;;;;;8.13;1.70;;;;;;;18.54;100.00;101334.34;5114550;28;20098;-71
2022/07/26 02:10:03;;;;;;;8.35;2.60;;;;;;;18.53;100.00;101330.78;5103113;28;20030;-72
2022/07/26 02:12:28;;;;;;;7.07;2.15;;;;;;;18.51;100.00;101337.03;5104808;28;20376;-70
2022/07/26 02:14:54;;;;;;;8.68;2.03;;;;;;;18.51;100.00;101335.25;5115017;28;20024;-71
2022/07/26 02:17:19;;;;;;;9.23;2.72;;;;;;;18.53;100.00;101325.47;5113048;28;20073;-70
2022/07/26 02:19:45;;;;;;;11.93;2.50;;;;;;;18.52;100.00;101328.16;5114158;28;20030;-71
2022/07/26 02:22:10;;;;;;;6.13;1.58;;;;;;;18.49;100.00;101333.50;5104535;28;20058;-70
2022/07/26 02:24:36;;;;;;;6.85;1.67;;;;;;;18.50;100.00;101336.16;5113253;28;20019;-71
2022/07/26 02:27:02;;;;;;;9.48;1.50;;;;;;;18.43;100.00;101337.09;5100721;28;20031;-70
2022/07/26 02:29:28;;;;;;;12.40;2.20;;;;;;;18.37;100.00;101332.69;5098850;28;20077;-71
2022/07/26 02:31:54;;;;;;;7.90;2.00;;;;;;;18.31;100.00;101337.19;5109420;28;20453;-71
2022/07/26 02:34:20;;;;;;;12.93;1.85;;;;;;;18.24;100.00;101343.47;5095321;28;20027;-71
2022/07/26 02:36:45;;;;;;;10.52;2.00;;;;;;;18.20;100.00;101343.50;5105515;28;20020;-71
2022/07/26 02:39:11;;;;;;;12.07;2.13;;;;;;;18.13;100.00;101340.88;5113893;28;20050;-71
2022/07/26 02:41:37;;;;;;;10.43;2.10;;;;;;;18.07;100.00;101347.13;5108495;28;20031;-72
2022/07/26 02:44:03;;;;;;;8.50;1.80;;;;;;;18.01;100.00;101344.50;5113869;28;20030;-72
2022/07/26 02:46:28;;;;;;;7.45;1.80;;;;;;;17.99;100.00;101343.63;5101845;28;20039;-72
2022/07/26 02:48:54;;;;;;;6.25;1.55;;;;;;;17.99;100.00;101346.31;5112789;28;20027;-72
2022/07/26 02:51:19;;;;;;;8.98;1.77;;;;;;;17.91;100.00;101348.09;5110098;28;20024;-71
2022/07/26 02:53:44;;;;;;;7.82;1.92;;;;;;;17.91;100.00;101348.97;5106288;28;20032;-70
2022/07/26 02:56:10;;;;;;;11.05;1.92;;;;;;;17.85;100.00;101344.56;5103113;28;20426;-71
2022/07/26 02:58:36;;;;;;;6.90;1.42;;;;;;;17.83;100.00;101346.34;5094631;28;20548;-71
2022/07/26 03:01:02;;;;;;;4.68;1.48;;;;;;;17.84;100.00;101352.56;5101587;28;20112;-70
2022/07/26 03:03:27;;;;;;;4.22;1.48;;;;;;;17.83;100.00;101350.78;5095867;28;20557;-71
2022/07/26 03:05:52;;;;;;;8.82;1.55;;;;;;;17.76;100.00;101349.06;5095167;28;20031;-72
2022/07/26 03:08:18;;;;;;;7.45;1.70;;;;;;;17.79;100.00;101352.56;5111425;28;20023;-72
2022/07/26 03:10:43;;;;;;;5.30;1.73;;;;;;;17.74;100.00;101356.16;5109185;28;20038;-71
2022/07/26 03:13:09;;;;;;;6.60;1.85;;;;;;;17.75;100.00;101358.81;5085239;28;20455;-71
2022/07/26 03:15:34;;;;;;;6.18;1.83;;;;;;;17.75;100.00;101361.47;5108956;28;20028;-71
2022/07/26 03:18:00;;;;;;;9.80;2.45;;;;;;;17.72;100.00;101369.47;5111569;28;20489;-72
2022/07/26 03:20:25;;;;;;;5.88;1.50;;;;;;;17.66;100.00;101364.16;5112784;28;20395;-71
2022/07/26 03:22:50;;;;;;;5.25;1.55;;;;;;;17.70;100.00;101363.25;5100414;28;20028;-71
2022/07/26 03:25:16;;;;;;;11.38;1.92;;;;;;;17.68;100.00;101355.28;5112037;28;20019;-72
2022/07/26 03:27:41;;;;;;;6.63;1.90;;;;;;;17.61;100.00;101369.53;5101886;28;20447;-71
2022/07/26 03:30:07;;;;;;;5.57;1.98;;;;;;;17.60;100.00;101366.88;5100611;28;20049;-71
2022/07/26 03:32:32;;;;;;;5.65;1.58;;;;;;;17.58;100.00;101372.19;5093547;28;20028;-71
2022/07/26 03:34:58;;;;;;;8.10;1.55;;;;;;;17.53;100.00;101372.19;5103099;28;20024;-71
2022/07/26 03:37:23;;;;;;;5.05;1.38;;;;;;;17.52;100.00;101370.44;5092917;28;20036;-72
2022/07/26 03:39:49;;;;;;;8.60;2.40;;;;;;;17.56;100.00;101381.97;5096242;28;20016;-71
2022/07/26 03:42:15;;;;;;;9.65;2.00;;;;;;;17.60;100.00;101388.16;5100543;28;20050;-73
2022/07/26 03:44:40;;;;;;;5.60;1.80;;;;;;;17.56;100.00;101387.28;5075497;28;20043;-70
2022/07/26 03:47:06;;;;;;;4.38;1.50;;;;;;;17.61;100.00;101384.63;5091331;28;20027;-71
2022/07/26 03:49:31;;;;;;;7.72;1.70;;;;;;;17.63;100.00;101388.13;5081384;28;20446;-71
2022/07/26 03:51:56;;;;;;;5.50;1.77;;;;;;;17.65;100.00;101375.72;5105681;28;20463;-72
2022/07/26 03:54:22;;;;;;;12.50;1.83;;;;;;;17.66;100.00;101380.13;5105551;28;20367;-71
2022/07/26 03:56:56;;;;;;;1.75;1.35;;;;;;;17.65;100.00;101384.59;4882430;28;15048599;-72
2022/07/26 03:59:23;;;;;;;7.00;1.60;;;;;;;17.62;100.00;101376.63;5064342;28;20259;-72
2022/07/26 04:01:49;;;;;;;5.22;1.65;;;;;;;17.64;100.00;101379.28;5112131;28;20519;-71
2022/07/26 04:04:16;;;;;;;10.25;2.00;;;;;;;17.63;100.00;101378.38;5106552;28;20755;-70
2022/07/26 04:06:43;;;;;;;8.90;2.30;;;;;;;17.64;100.00;101384.59;5111709;28;20085;-73
2022/07/26 04:09:08;;;;;;;10.35;2.22;;;;;;;17.66;100.00;101385.47;5105786;28;20067;-71
2022/07/26 04:11:34;;;;;;;9.55;1.90;;;;;;;17.63;100.00;101393.47;5088490;28;20139;-70
2022/07/26 04:14:00;;;;;;;7.05;2.13;;;;;;;17.62;100.00;101389.94;5113130;28;20031;-71
2022/07/26 04:16:26;;;;;;;8.85;1.98;;;;;;;17.63;100.00;101393.47;5112663;28;20027;-71
2022/07/26 04:18:52;;;;;;;3.92;1.70;;;;;;;17.65;100.00;101392.56;5091037;28;20025;-71
2022/07/26 04:21:17;;;;;;;6.70;1.90;;;;;;;17.63;100.00;101391.69;5112701;28;20051;-71
2022/07/26 04:23:42;;;;;;;7.18;2.13;;;;;;;17.64;100.00;101389.91;5110129;28;20407;-71
2022/07/26 04:26:08;;;;;;;6.97;1.85;;;;;;;17.70;100.00;101396.09;5110622;28;20097;-71
2022/07/26 04:28:33;;;;;;;4.47;1.77;;;;;;;17.66;100.00;101394.34;5106734;28;20027;-72
2022/07/26 04:30:59;;;;;;;5.10;1.70;;;;;;;17.67;100.00;101396.09;5109870;28;20064;-72
2022/07/26 04:33:25;;;;;;;8.05;1.88;;;;;;;17.75;100.00;101389.88;5106308;28;20394;-72
2022/07/26 04:35:52;;;;;;;4.20;1.90;;;;;;;17.81;100.00;101396.06;5112598;28;20028;-72
2022/07/26 04:38:18;;;;;;;6.63;1.77;;;;;;;17.87;100.00;101390.69;5110363;28;20102;-70
2022/07/26 04:40:43;;;;;;;6.88;1.83;;;;;;;17.76;100.00;101408.50;5104736;28;20034;-71
2022/07/26 04:43:09;;;;;;;8.57;1.95;;;;;;;17.74;100.00;101410.25;5087792;28;20055;-70
2022/07/26 04:45:34;;;;;;;6.85;1.50;;;;;;;17.71;100.00;101415.59;5092901;28;20073;-71
2022/07/26 04:47:59;;;;;;;6.75;1.75;;;;;;;17.65;100.00;101413.00;5108523;28;20467;-71
2022/07/26 04:50:26;;;;;;;8.77;2.78;;;;;;;17.57;100.00;101421.00;5104660;28;20036;-71
2022/07/26 04:52:53;;;;;;;8.20;2.05;;;;;;;17.48;100.00;101427.22;5102774;28;20059;-71
2022/07/26 04:55:19;;;;;;;7.97;1.88;;;;;;;17.40;100.00;101423.69;5111510;28;20020;-70
2022/07/26 04:57:45;;;;;;;9.38;1.83;;;;;;;17.34;100.00;101423.72;5115891;28;20407;-71
2022/07/26 05:00:12;;;;;;;11.07;2.72;;;;;;;17.30;100.00;101427.28;5115996;28;20023;-71
2022/07/26 05:02:38;;;;;;;9.88;2.30;;;;;;;17.30;100.00;101435.25;5112408;28;20108;-70
2022/07/26 05:05:05;;;;;;;7.13;2.00;;;;;;;17.19;100.00;101440.59;5107472;28;20070;-70
2022/07/26 05:07:44;;;;;;;11.68;2.97;;;;;;;17.18;100.00;101439.69;5108831;28;20383;-71
2022/07/26 05:10:11;;;;;;;8.95;3.15;;;;;;;17.17;100.00;101442.34;5109350;28;20384;-70
2022/07/26 05:12:36;;;;;;;10.32;2.55;;;;;;;17.13;100.00;101446.81;5113865;28;20538;-71
2022/07/26 05:15:03;;;;;;;9.75;2.20;;;;;;;17.12;100.00;101457.41;5108030;28;20172;-71
2022/07/26 05:17:28;;;;;;;10.48;2.63;;;;;;;17.07;100.00;101460.09;5109547;28;20032;-71
2022/07/26 05:19:53;;;;;;;11.88;2.53;;;;;;;17.10;100.00;101467.19;5105105;28;20030;-71
2022/07/26 05:22:19;;;;;;;9.82;1.60;;;;;;;16.95;100.00;101466.28;5105503;28;20026;-71
2022/07/26 05:24:44;;;;;;;11.93;2.25;;;;;;;16.94;100.00;101472.50;5105503;28;20019;-71
2022/07/26 05:27:09;;;;;;;8.13;1.73;;;;;;;16.91;100.00;101471.63;5111133;28;20051;-71
2022/07/26 05:29:35;;;;;;;8.93;2.38;;;;;;;17.01;100.00;101470.72;5107409;28;20120;-71
2022/07/26 05:32:00;;;;;;;8.63;1.77;;;;;;;17.04;100.00;101476.06;5103196;28;20027;-71
2022/07/26 05:34:26;;;;;;;9.80;2.00;;;;;;;16.98;100.00;101478.69;5100836;28;20397;-72
2022/07/26 05:36:51;;;;;;;10.95;2.00;;;;;;;17.04;100.00;101478.72;5114572;28;20023;-71
2022/07/26 05:39:16;;;;;;;9.20;1.88;;;;;;;16.96;100.00;101477.81;5093280;28;20088;-70
2022/07/26 05:41:42;;;;;;;7.70;1.88;;;;;;;17.03;100.00;101480.47;5085145;28;20390;-70
2022/07/26 05:44:08;;;;;;;11.40;2.13;;;;;;;17.07;100.00;101476.03;5115888;28;20118;-70
2022/07/26 05:46:36;;;;;;;6.90;1.90;;;;;;;17.11;100.00;101483.13;5113118;28;20518;-70
2022/07/26 05:49:02;;;;;;;10.60;2.08;;;;;;;17.07;100.00;101492.00;5113849;28;20024;-70
2022/07/26 05:51:29;;;;;;;9.25;2.00;;;;;;;17.08;100.00;101491.13;5097745;28;20051;-70
2022/07/26 05:53:54;;;;;;;15.35;2.40;;;;;;;17.06;100.00;101492.88;5100907;28;20043;-71
2022/07/26 05:56:19;;;;;;;11.43;2.10;;;;;;;17.03;100.00;101499.06;5111623;28;20032;-71
2022/07/26 05:58:45;;;;;;;8.57;2.00;;;;;;;16.99;100.00;101501.75;5113694;28;20043;-71
2022/07/26 06:01:10;;;;;;;10.05;2.05;;;;;;;16.95;100.00;101507.94;5083764;28;20080;-71
2022/07/26 06:03:35;;;;;;;12.73;2.33;;;;;;;16.80;100.00;101500.81;5110512;28;20031;-71
2022/07/26 06:06:01;;;;;;;15.82;1.83;;;;;;;16.74;100.00;101504.34;5110855;28;20027;-71
2022/07/26 06:08:26;;;;;;;7.78;1.92;;;;;;;16.78;100.00;101506.13;5095286;28;20050;-71
2022/07/26 06:10:52;;;;;;;16.25;2.28;;;;;;;16.86;100.00;101511.44;5111414;28;20055;-67
2022/07/26 06:13:18;;;;;;;12.88;2.30;;;;;;;16.91;100.00;101516.81;5106587;28;20104;-70
2022/07/26 06:15:44;;;;;;;9.70;2.10;;;;;;;16.88;100.00;101522.97;5100487;28;20032;-71
2022/07/26 06:18:10;;;;;;;16.00;2.42;;;;;;;16.83;100.00;101522.97;5101833;28;20012;-70
2022/07/26 06:20:42;;;;;;;9.82;2.10;;;;;;;16.87;100.00;101531.81;5095664;28;20505;-71
2022/07/26 06:23:07;;;;;;;14.38;2.65;;;;;;;16.92;100.00;101535.41;5101734;28;20035;-70
2022/07/26 06:25:33;;;;;;;17.58;2.88;;;;;;;17.04;100.00;101542.53;5109643;28;20024;-71
2022/07/26 06:28:01;;;;;;;15.88;2.58;;;;;;;17.10;100.00;101547.84;5106351;28;20062;-71
2022/07/26 06:30:27;;;;;;;14.60;2.38;;;;;;;17.15;100.00;101540.75;5102162;28;20035;-71
2022/07/26 06:32:52;;;;;;;10.93;2.08;;;;;;;17.17;100.00;101544.31;5087898;28;20051;-71
2022/07/26 06:35:17;;;;;;;12.65;2.20;;;;;;;17.19;100.00;101553.16;5085184;28;20023;-71
2022/07/26 06:37:43;;;;;;;7.57;1.60;;;;;;;17.23;100.00;101547.84;5086619;28;20077;-72
2022/07/26 06:40:09;;;;;;;9.73;1.70;;;;;;;17.26;100.00;101553.19;5107648;28;20444;-71
2022/07/26 06:42:35;;;;;;;22.48;1.67;;;;;;;17.29;100.00;101561.16;5102027;28;20031;-70
2022/07/26 06:45:01;;;;;;;11.45;1.70;;;;;;;17.29;100.00;101562.03;5107297;28;20450;-69
2022/07/26 06:47:27;;;;;;;8.45;1.25;;;;;;;17.39;100.00;101560.28;5108764;28;20051;-72
2022/07/26 06:49:52;;;;;;;11.13;1.77;;;;;;;17.44;100.00;101568.25;5094770;28;20488;-71
2022/07/26 06:52:18;;;;;;;8.90;1.85;;;;;;;17.51;100.00;101560.25;5094220;28;20078;-72
2022/07/26 06:54:44;;;;;;;8.43;1.70;;;;;;;17.57;100.00;101564.69;5098870;28;20039;-71
2022/07/26 06:57:09;;;;;;;5.25;1.58;;;;;;;17.68;100.00;101568.22;5103930;28;20048;-71
2022/07/26 06:59:34;;;;;;;4.90;1.23;;;;;;;17.66;100.00;101570.00;5105782;28;20042;-71
2022/07/26 07:02:02;;;;;;;9.07;1.23;;;;;;;17.80;100.00;101575.31;5083185;28;20020;-70
2022/07/26 07:04:29;;;;;;;9.23;1.33;;;;;;;17.89;100.00;101576.16;5101462;28;20023;-70
2022/07/26 07:06:54;;;;;;;8.07;1.25;;;;;;;17.90;100.00;101577.97;5099994;28;20036;-71
2022/07/26 07:09:20;;;;;;;9.20;1.20;;;;;;;17.86;100.00;101583.28;5102604;28;20032;-72
2022/07/26 07:11:48;;;;;;;5.00;1.00;;;;;;;17.84;100.00;101585.06;5100734;28;20454;-71
2022/07/26 07:14:13;;;;;;;8.10;1.17;;;;;;;17.81;100.00;101592.16;5101712;28;20062;-71
2022/07/26 07:16:39;;;;;;;5.10;1.08;;;;;;;17.71;100.00;101583.28;5104180;27;20054;-71
2022/07/26 07:19:04;;;;;;;6.07;1.08;;;;;;;17.75;100.00;101593.06;5106438;27;20034;-71
2022/07/26 07:21:29;;;;;;;12.48;1.42;;;;;;;17.68;100.00;101585.97;5104700;28;20035;-72
2022/07/26 07:23:55;;;;;;;7.95;1.27;;;;;;;17.59;100.00;101599.28;5105842;28;20073;-70
2022/07/26 07:26:20;;;;;;;8.05;1.90;;;;;;;17.63;100.00;101601.94;5105736;27;20040;-71
2022/07/26 07:28:45;;;;;;;6.25;1.10;;;;;;;17.62;100.00;101605.50;5103372;28;20064;-71
2022/07/26 07:31:11;;;;;;;4.95;1.17;;;;;;;17.59;100.00;101607.25;5080932;28;20016;-72
2022/07/26 07:33:36;;;;;;;8.85;2.10;;;;;;;17.65;100.00;101607.28;5102614;28;20032;-70
2022/07/26 07:36:01;;;;;;;7.28;1.45;;;;;;;17.63;100.00;101611.69;5102503;28;20024;-70
2022/07/26 07:38:27;;;;;;;4.75;1.60;;;;;;;17.61;100.00;101608.16;5102978;28;20556;-71
2022/07/26 07:40:53;;;;;;;5.45;1.10;;;;;;;17.61;100.00;101618.81;5105113;28;20057;-71
2022/07/26 07:43:18;;;;;;;7.32;1.33;;;;;;;17.66;100.00;101622.34;5084018;28;20028;-72
2022/07/26 07:45:43;;;;;;;8.50;1.50;;;;;;;17.73;100.00;101621.47;5107286;28;20376;-72
2022/07/26 07:48:09;;;;;;;13.75;1.00;;;;;;;17.76;100.00;101617.91;5110730;28;20032;-70
2022/07/26 07:50:34;;;;;;;12.73;1.45;;;;;;;17.96;100.00;101618.81;5075649;28;20031;-72
2022/07/26 07:52:59;;;;;;;6.57;1.15;;;;;;;18.17;100.00;101620.53;5101406;28;20020;-70
2022/07/26 07:55:25;;;;;;;15.68;1.35;;;;;;;18.31;100.00;101616.94;5082519;28;20092;-72
2022/07/26 07:57:50;;;;;;;6.20;1.05;;;;;;;18.37;100.00;101615.13;5109926;28;20114;-71
2022/07/26 08:00:18;;;;;;;10.00;0.90;;;;;;;18.23;100.00;101624.06;5113041;28;20024;-71
2022/07/26 08:02:45;;;;;;;8.48;1.25;;;;;;;18.17;100.00;101624.97;5081631;28;20024;-72
2022/07/26 08:05:10;;;;;;;9.68;1.25;;;;;;;18.09;100.00;101622.31;5090443;28;20011;-70
2022/07/26 08:07:36;;;;;;;8.52;1.40;;;;;;;18.06;100.00;101625.00;5113396;28;20034;-72
2022/07/26 08:10:01;;;;;;;6.32;1.58;;;;;;;18.00;100.00;101623.25;5111252;28;20023;-69
2022/07/26 08:12:26;;;;;;;4.32;0.90;;;;;;;17.97;100.00;101633.00;5106743;28;20027;-70
2022/07/26 08:14:52;;;;;;;7.97;1.08;;;;;;;17.92;100.00;101630.34;5084827;28;20030;-72
2022/07/26 08:17:18;;;;;;;4.53;0.80;;;;;;;17.96;100.00;101631.22;5080838;28;20384;-72
2022/07/26 08:19:44;;;;;;;5.65;1.02;;;;;;;18.00;100.00;101638.31;5082823;28;20032;-72
2022/07/26 08:22:09;;;;;;;3.70;0.80;;;;;;;18.10;100.00;101639.22;5117040;28;20032;-71
2022/07/26 08:24:35;;;;;;;4.38;0.80;;;;;;;18.13;100.00;101640.06;5108206;28;20027;-71
2022/07/26 08:27:00;;;;;;;4.65;0.93;;;;;;;18.35;100.00;101650.66;5104745;28;20076;-71
2022/07/26 08:29:25;;;;;;;5.95;0.90;;;;;;;18.56;100.00;101648.81;5114912;28;20024;-72
2022/07/26 08:31:51;;;;;;;6.68;0.80;;;;;;;18.68;100.00;101651.47;5105597;27;20036;-73
2022/07/26 08:34:17;;;;;;;2.58;0.60;;;;;;;18.73;100.00;101657.63;5109836;27;20027;-73
2022/07/26 08:36:43;;;;;;;6.50;1.13;;;;;;;18.66;100.00;101653.25;5097468;28;20486;-71
2022/07/26 08:39:08;;;;;;;6.05;1.10;;;;;;;18.60;100.00;101663.91;5087697;28;20065;-72
2022/07/26 08:41:35;;;;;;;5.30;0.60;;;;;;;18.52;100.00;101663.97;5117123;27;20035;-71
2022/07/26 08:44:08;;;;;;;2.85;0.68;;;;;;;18.52;100.00;101670.16;5115449;28;20455;-71
2022/07/26 08:46:36;;;;;;;2.63;0.73;;;;;;;18.49;100.00;101678.19;5091342;28;20106;-71
2022/07/26 08:49:01;;;;;;;6.07;0.50;;;;;;;18.47;100.00;101671.94;5115317;28;20020;-72
2022/07/26 08:51:27;;;;;;;3.92;0.60;;;;;;;18.41;100.00;101676.41;5111853;28;20506;-72
2022/07/26 08:53:56;;;;;;;4.78;0.60;;;;;;;18.46;100.00;101680.88;5109415;27;20523;-72
2022/07/26 08:56:21;;;;;;;4.13;0.70;;;;;;;18.44;100.00;101687.97;5113969;28;20019;-72
2022/07/26 08:58:46;;;;;;;6.72;0.80;;;;;;;18.42;100.00;101689.75;5110280;28;20050;-72
2022/07/26 09:01:12;;;;;;;5.32;1.27;;;;;;;18.43;100.00;101696.84;5112344;28;20022;-72
2022/07/26 09:03:38;;;;;;;7.50;1.45;;;;;;;18.40;100.00;101691.53;5106228;27;20034;-71
2022/07/26 09:06:21;;;;;;;6.30;1.05;;;;;;;18.45;100.00;101695.06;5104968;28;20024;-71
2022/07/26 09:08:49;;;;;;;8.88;1.38;;;;;;;18.47;100.00;101692.41;5091673;28;20020;-72
2022/07/26 09:11:24;;;;;;;6.60;0.90;;;;;;;18.66;100.00;101695.91;5112868;28;20085;-72
2022/07/26 09:14:10;;;;;;;7.00;1.80;;;;;;;18.75;100.00;101697.66;5110085;27;20395;-72
2022/07/26 09:16:35;;;;;;;7.50;1.10;;;;;;;18.89;100.00;101702.97;5108732;28;20072;-72
2022/07/26 09:19:20;;;;;;;7.10;1.20;;;;;;;19.03;100.00;101707.34;5086035;28;20023;-71
2022/07/26 09:21:46;;;;;;;5.93;0.98;;;;;;;19.25;100.00;101714.31;5108752;28;20042;-72
2022/07/26 09:24:12;;;;;;;9.70;1.10;;;;;;;19.35;100.00;101722.28;5110334;27;20019;-72
2022/07/26 09:26:37;;;;;;;4.13;1.17;;;;;;;19.59;100.00;101730.13;5103363;28;20031;-72
2022/07/26 09:29:11;;;;;;;5.68;1.08;;;;;;;19.32;100.00;101737.44;5111702;28;20028;-72
2022/07/26 09:31:37;;;;;;;;;;;;;;;19.25;100.00;101751.69;5108074;28;20028;-71
2022/07/26 09:34:03;;;;;;;6.50;1.35;;;;;;;19.08;100.00;101744.66;5116890;27;19907;-68
2022/07/26 09:36:29;;;;;;;9.02;0.90;;;;;;;18.74;100.00;101744.75;5106505;28;20028;-71
2022/07/26 09:38:58;;;;;;;6.70;0.82;;;;;;;18.58;100.00;101743.88;5100988;28;20034;-73
2022/07/26 09:41:33;;;;;;;5.28;1.17;;;;;;;18.31;100.00;101750.16;5115621;27;20023;-72
2022/07/26 09:44:04;;;;;;;7.53;1.20;;;;;;;18.47;100.00;101753.69;5105090;28;20024;-72
2022/07/26 09:46:31;;;;;;;6.57;1.30;;;;;;;18.31;100.00;101750.16;5096108;28;20042;-72
2022/07/26 09:48:59;;;;;;;8.25;1.20;;;;;;;18.46;100.00;101743.91;5103371;28;20024;-72
2022/07/26 09:51:41;;;;;;;11.75;1.52;;;;;;;18.51;100.00;101751.00;5106466;28;20442;-73
2022/07/26 09:54:09;;;;;;;3.63;0.68;;;;;;;18.58;100.00;101748.34;5096655;28;20024;-72
2022/07/26 09:56:49;;;;;;;6.53;0.90;;;;;;;18.65;100.00;101760.75;5100611;28;20027;-72
2022/07/26 09:59:17;;;;;;;6.20;1.08;;;;;;;18.71;100.00;101758.97;5104772;27;20040;-73
2022/07/26 10:01:44;;;;;;;3.50;0.65;;;;;;;18.72;100.00;101767.88;5109056;28;20043;-70
2022/07/26 10:04:09;;;;;;;8.43;0.95;;;;;;;18.77;100.00;101759.84;5086477;28;20037;-71
2022/07/26 10:06:35;;;;;;;5.50;1.00;;;;;;;18.82;100.00;101764.25;5082892;28;20020;-73
2022/07/26 10:09:01;;;;;;;4.15;0.85;;;;;;;19.00;100.00;101762.47;5105907;27;20106;-72
2022/07/26 10:11:37;;;;;;;8.70;1.27;;;;;;;19.12;100.00;101759.75;5084046;28;20031;-72
2022/07/26 10:14:35;;;;;;;2.72;0.82;;;;;;;19.23;100.00;101766.84;5094887;28;20028;-71
2022/07/26 10:17:29;;;;;;;3.38;0.80;;;;;;;19.30;100.00;101771.22;5105699;27;20078;-72
2022/07/26 10:20:02;;;;;;;6.13;0.90;;;;;;;19.56;100.00;101773.78;5108349;28;20062;-73
2022/07/26 10:22:34;;;;;;;4.28;0.93;;;;;;;19.77;100.00;101772.75;5109541;28;20027;-73
2022/07/26 10:25:17;;;;;;;4.50;0.93;;;;;;;19.76;100.00;101765.63;5081845;28;20032;-72
2022/07/26 10:27:45;;;;;;;6.90;1.23;;;;;;;19.84;100.00;101777.16;5098937;28;20031;-78
2022/07/26 10:30:21;;;;;;;2.70;0.75;;;;;;;19.99;100.00;101773.50;5104078;27;20024;-71
2022/07/26 10:32:50;;;;;;;4.82;1.15;;;;;;;20.16;100.00;101775.16;5086345;28;20020;-73
2022/07/26 10:35:40;;;;;;;6.25;0.90;;;;;;;20.04;100.00;101781.50;5110749;28;20077;-72
2022/07/26 10:38:21;;;;;;;8.48;1.02;;;;;;;20.15;100.00;101784.94;5104407;28;20106;-71
2022/07/26 10:41:01;;;;;;;7.00;0.90;;;;;;;20.32;100.00;101781.25;5113281;28;20020;-71
2022/07/26 10:43:28;;;;;;;4.97;1.10;;;;;;;20.43;100.00;101790.06;5112157;27;20036;-71
2022/07/26 10:46:12;;;;;;;5.20;1.10;;;;;;;20.39;100.00;101789.19;5109104;28;20459;-72
2022/07/26 10:48:58;;;;;;;6.75;1.40;;;;;;;20.46;100.00;101789.16;5080740;28;20031;-72
2022/07/26 10:51:30;;;;;;;5.75;1.23;;;;;;;20.58;100.00;101794.38;5111500;27;20410;-72
2022/07/26 10:54:03;;;;;;;4.38;1.08;;;;;;;20.79;100.00;101787.94;5110118;28;20383;-72
2022/07/26 10:56:29;;;;;;;7.15;1.38;;;;;;;21.04;100.00;101785.00;5115074;28;20482;-72
2022/07/26 10:58:55;;;;;;;7.18;1.42;;;;;;;21.29;100.00;101782.00;5113997;27;20048;-71
2022/07/26 11:01:20;;;;;;;6.63;1.23;;;;;;;21.20;100.00;101783.00;5099883;28;20028;-71
2022/07/26 11:03:46;;;;;;;8.52;1.83;;;;;;;20.86;100.00;101781.63;5103730;28;20059;-72
2022/07/26 11:06:16;;;;;;;10.00;1.55;;;;;;;20.77;100.00;101779.06;5104414;28;20019;-72
2022/07/26 11:08:44;;;;;;;6.63;1.75;;;;;;;21.02;100.00;101789.47;5081247;28;20047;-71
2022/07/26 11:11:09;;;;;;;6.65;1.13;;;;;;;21.22;100.00;101787.44;5096907;28;20093;-71
2022/07/26 11:13:36;;;;;;;8.20;1.30;;;;;;;21.44;100.00;101787.16;5110523;28;20027;-71
2022/07/26 11:16:04;;;;;;;6.40;1.30;;;;;;;21.38;100.00;101793.47;5106396;28;20038;-71